sensor_id;sensor_type;location;lat;lon;timestamp;P1;durP1;ratioP1;P2;durP2;ratioP2
52031;SDS011;38044;45.148;39.604;2023-11-21T00:01:57;7.05;;;5.80;;
52031;SDS011;38044;45.148;39.604;2023-11-21T00:04:24;7.20;;;6.00;;
52031;SDS011;38044;45.148;39.604;2023-11-21T00:06:50;6.93;;;5.30;;
52031;SDS011;38044;45.148;39.604;2023-11-21T00:09:16;7.78;;;6.32;;
52031;SDS011;38044;45.148;39.604;2023-11-21T00:11:43;8.00;;;5.85;;
52031;SDS011;38044;45.148;39.604;2023-11-21T00:14:10;5.88;;;5.25;;
52031;SDS011;38044;45.148;39.604;2023-11-21T00:16:49;6.40;;;4.88;;
52031;SDS011;38044;45.148;39.604;2023-11-21T00:19:19;4.43;;;3.95;;
52031;SDS011;38044;45.148;39.604;2023-11-21T00:21:45;4.15;;;3.60;;
52031;SDS011;38044;45.148;39.604;2023-11-21T00:24:11;5.55;;;3.92;;
52031;SDS011;38044;45.148;39.604;2023-11-21T00:26:39;4.82;;;3.97;;
52031;SDS011;38044;45.148;39.604;2023-11-21T00:29:05;5.18;;;4.47;;
52031;SDS011;38044;45.148;39.604;2023-11-21T00:31:33;5.53;;;4.25;;
52031;SDS011;38044;45.148;39.604;2023-11-21T00:34:03;5.10;;;4.10;;
52031;SDS011;38044;45.148;39.604;2023-11-21T00:36:32;4.88;;;4.22;;
52031;SDS011;38044;45.148;39.604;2023-11-21T00:38:58;5.05;;;3.83;;
52031;SDS011;38044;45.148;39.604;2023-11-21T00:41:24;5.82;;;4.45;;
52031;SDS011;38044;45.148;39.604;2023-11-21T00:43:53;6.93;;;4.50;;
52031;SDS011;38044;45.148;39.604;2023-11-21T00:46:20;5.32;;;4.55;;
52031;SDS011;38044;45.148;39.604;2023-11-21T00:48:46;6.05;;;4.97;;
52031;SDS011;38044;45.148;39.604;2023-11-21T00:51:12;5.63;;;4.65;;
52031;SDS011;38044;45.148;39.604;2023-11-21T00:53:38;5.45;;;4.90;;
52031;SDS011;38044;45.148;39.604;2023-11-21T00:56:04;7.00;;;5.13;;
52031;SDS011;38044;45.148;39.604;2023-11-21T00:58:32;5.90;;;5.30;;
52031;SDS011;38044;45.148;39.604;2023-11-21T01:00:57;7.85;;;6.07;;
52031;SDS011;38044;45.148;39.604;2023-11-21T01:03:23;8.90;;;5.97;;
52031;SDS011;38044;45.148;39.604;2023-11-21T01:05:49;6.93;;;5.90;;
52031;SDS011;38044;45.148;39.604;2023-11-21T01:08:15;9.43;;;5.97;;
52031;SDS011;38044;45.148;39.604;2023-11-21T01:10:41;8.40;;;6.50;;
52031;SDS011;38044;45.148;39.604;2023-11-21T01:13:07;8.88;;;6.85;;
52031;SDS011;38044;45.148;39.604;2023-11-21T01:15:33;7.85;;;6.25;;
52031;SDS011;38044;45.148;39.604;2023-11-21T01:17:59;7.43;;;6.50;;
52031;SDS011;38044;45.148;39.604;2023-11-21T01:20:25;9.35;;;7.22;;
52031;SDS011;38044;45.148;39.604;2023-11-21T01:22:51;9.07;;;7.32;;
52031;SDS011;38044;45.148;39.604;2023-11-21T01:25:19;11.30;;;8.40;;
52031;SDS011;38044;45.148;39.604;2023-11-21T01:27:46;11.23;;;7.97;;
52031;SDS011;38044;45.148;39.604;2023-11-21T01:30:12;9.30;;;8.00;;
52031;SDS011;38044;45.148;39.604;2023-11-21T01:32:38;11.00;;;8.13;;
52031;SDS011;38044;45.148;39.604;2023-11-21T01:35:05;10.82;;;8.43;;
52031;SDS011;38044;45.148;39.604;2023-11-21T01:37:35;12.45;;;8.98;;
52031;SDS011;38044;45.148;39.604;2023-11-21T01:40:02;11.75;;;9.52;;
52031;SDS011;38044;45.148;39.604;2023-11-21T01:42:33;11.52;;;8.20;;
52031;SDS011;38044;45.148;39.604;2023-11-21T01:45:00;14.18;;;9.20;;
52031;SDS011;38044;45.148;39.604;2023-11-21T01:47:31;11.40;;;8.45;;
52031;SDS011;38044;45.148;39.604;2023-11-21T01:49:58;10.32;;;7.85;;
52031;SDS011;38044;45.148;39.604;2023-11-21T01:52:24;8.10;;;6.45;;
52031;SDS011;38044;45.148;39.604;2023-11-21T01:54:51;7.10;;;5.55;;
52031;SDS011;38044;45.148;39.604;2023-11-21T01:57:19;6.57;;;4.90;;
52031;SDS011;38044;45.148;39.604;2023-11-21T01:59:45;5.78;;;4.70;;
52031;SDS011;38044;45.148;39.604;2023-11-21T02:02:15;6.90;;;4.90;;
52031;SDS011;38044;45.148;39.604;2023-11-21T02:04:41;5.82;;;5.05;;
52031;SDS011;38044;45.148;39.604;2023-11-21T02:07:07;9.35;;;5.72;;
52031;SDS011;38044;45.148;39.604;2023-11-21T02:09:33;8.32;;;6.43;;
52031;SDS011;38044;45.148;39.604;2023-11-21T02:12:00;8.68;;;5.90;;
52031;SDS011;38044;45.148;39.604;2023-11-21T02:14:26;8.70;;;6.75;;
52031;SDS011;38044;45.148;39.604;2023-11-21T02:16:53;8.07;;;6.18;;
52031;SDS011;38044;45.148;39.604;2023-11-21T02:19:21;9.32;;;6.80;;
52031;SDS011;38044;45.148;39.604;2023-11-21T02:21:55;8.63;;;6.88;;
52031;SDS011;38044;45.148;39.604;2023-11-21T02:24:28;8.00;;;6.65;;
52031;SDS011;38044;45.148;39.604;2023-11-21T02:26:54;9.88;;;7.45;;
52031;SDS011;38044;45.148;39.604;2023-11-21T02:29:21;12.27;;;8.88;;
52031;SDS011;38044;45.148;39.604;2023-11-21T02:31:51;12.05;;;8.60;;
52031;SDS011;38044;45.148;39.604;2023-11-21T02:34:20;12.70;;;9.37;;
52031;SDS011;38044;45.148;39.604;2023-11-21T02:36:46;12.43;;;9.50;;
52031;SDS011;38044;45.148;39.604;2023-11-21T02:39:16;12.05;;;8.43;;
52031;SDS011;38044;45.148;39.604;2023-11-21T02:41:43;10.45;;;7.95;;
52031;SDS011;38044;45.148;39.604;2023-11-21T02:44:09;10.43;;;8.85;;
52031;SDS011;38044;45.148;39.604;2023-11-21T02:46:36;11.98;;;8.68;;
52031;SDS011;38044;45.148;39.604;2023-11-21T02:49:05;11.77;;;9.02;;
52031;SDS011;38044;45.148;39.604;2023-11-21T02:51:35;15.60;;;9.80;;
52031;SDS011;38044;45.148;39.604;2023-11-21T02:54:05;11.57;;;9.52;;
52031;SDS011;38044;45.148;39.604;2023-11-21T02:56:36;13.45;;;10.38;;
52031;SDS011;38044;45.148;39.604;2023-11-21T02:59:02;13.70;;;10.68;;
52031;SDS011;38044;45.148;39.604;2023-11-21T03:01:28;13.18;;;9.90;;
52031;SDS011;38044;45.148;39.604;2023-11-21T03:03:54;13.48;;;10.02;;
52031;SDS011;38044;45.148;39.604;2023-11-21T03:06:21;13.48;;;8.68;;
52031;SDS011;38044;45.148;39.604;2023-11-21T03:08:47;14.23;;;10.77;;
52031;SDS011;38044;45.148;39.604;2023-11-21T03:11:13;16.02;;;12.00;;
52031;SDS011;38044;45.148;39.604;2023-11-21T03:13:39;16.55;;;10.90;;
52031;SDS011;38044;45.148;39.604;2023-11-21T03:16:11;16.13;;;12.20;;
52031;SDS011;38044;45.148;39.604;2023-11-21T03:18:38;17.67;;;13.00;;
52031;SDS011;38044;45.148;39.604;2023-11-21T03:21:04;16.02;;;11.50;;
52031;SDS011;38044;45.148;39.604;2023-11-21T03:23:31;17.73;;;12.50;;
52031;SDS011;38044;45.148;39.604;2023-11-21T03:25:57;17.50;;;13.65;;
52031;SDS011;38044;45.148;39.604;2023-11-21T03:28:25;15.70;;;11.10;;
52031;SDS011;38044;45.148;39.604;2023-11-21T03:30:52;15.25;;;12.00;;
52031;SDS011;38044;45.148;39.604;2023-11-21T03:33:19;15.82;;;11.50;;
52031;SDS011;38044;45.148;39.604;2023-11-21T03:35:45;13.23;;;9.90;;
52031;SDS011;38044;45.148;39.604;2023-11-21T03:38:11;13.82;;;10.77;;
52031;SDS011;38044;45.148;39.604;2023-11-21T03:40:37;13.27;;;9.88;;
52031;SDS011;38044;45.148;39.604;2023-11-21T03:43:04;13.90;;;9.75;;
52031;SDS011;38044;45.148;39.604;2023-11-21T03:45:31;13.80;;;11.43;;
52031;SDS011;38044;45.148;39.604;2023-11-21T03:47:57;13.88;;;11.20;;
52031;SDS011;38044;45.148;39.604;2023-11-21T03:50:23;15.25;;;11.65;;
52031;SDS011;38044;45.148;39.604;2023-11-21T03:52:49;14.00;;;10.88;;
52031;SDS011;38044;45.148;39.604;2023-11-21T03:55:15;13.65;;;11.05;;
52031;SDS011;38044;45.148;39.604;2023-11-21T03:57:42;16.70;;;11.70;;
52031;SDS011;38044;45.148;39.604;2023-11-21T04:00:08;14.20;;;10.93;;
52031;SDS011;38044;45.148;39.604;2023-11-21T04:02:35;15.98;;;12.07;;
52031;SDS011;38044;45.148;39.604;2023-11-21T04:05:01;14.90;;;10.25;;
52031;SDS011;38044;45.148;39.604;2023-11-21T04:07:28;13.75;;;11.32;;
52031;SDS011;38044;45.148;39.604;2023-11-21T04:09:54;15.35;;;11.10;;
52031;SDS011;38044;45.148;39.604;2023-11-21T04:12:20;16.48;;;12.93;;
52031;SDS011;38044;45.148;39.604;2023-11-21T04:14:46;14.70;;;10.95;;
52031;SDS011;38044;45.148;39.604;2023-11-21T04:17:12;14.82;;;11.30;;
52031;SDS011;38044;45.148;39.604;2023-11-21T04:19:37;12.68;;;10.50;;
52031;SDS011;38044;45.148;39.604;2023-11-21T04:22:04;14.02;;;10.73;;
52031;SDS011;38044;45.148;39.604;2023-11-21T04:24:33;15.07;;;12.00;;
52031;SDS011;38044;45.148;39.604;2023-11-21T04:27:08;16.70;;;11.00;;
52031;SDS011;38044;45.148;39.604;2023-11-21T04:29:33;16.25;;;10.98;;
52031;SDS011;38044;45.148;39.604;2023-11-21T04:32:00;13.35;;;11.32;;
52031;SDS011;38044;45.148;39.604;2023-11-21T04:34:28;16.05;;;11.45;;
52031;SDS011;38044;45.148;39.604;2023-11-21T04:36:56;17.35;;;10.65;;
52031;SDS011;38044;45.148;39.604;2023-11-21T04:39:22;13.95;;;10.93;;
52031;SDS011;38044;45.148;39.604;2023-11-21T04:41:49;16.00;;;11.98;;
52031;SDS011;38044;45.148;39.604;2023-11-21T04:44:15;13.52;;;10.27;;
52031;SDS011;38044;45.148;39.604;2023-11-21T04:46:42;13.23;;;10.57;;
52031;SDS011;38044;45.148;39.604;2023-11-21T04:49:08;13.00;;;9.80;;
52031;SDS011;38044;45.148;39.604;2023-11-21T04:51:36;14.63;;;11.05;;
52031;SDS011;38044;45.148;39.604;2023-11-21T04:54:02;16.23;;;12.40;;
52031;SDS011;38044;45.148;39.604;2023-11-21T04:56:28;16.58;;;13.77;;
52031;SDS011;38044;45.148;39.604;2023-11-21T04:58:54;20.40;;;13.82;;
52031;SDS011;38044;45.148;39.604;2023-11-21T05:01:19;18.05;;;13.13;;
52031;SDS011;38044;45.148;39.604;2023-11-21T05:03:46;21.95;;;14.75;;
52031;SDS011;38044;45.148;39.604;2023-11-21T05:06:15;17.25;;;13.57;;
52031;SDS011;38044;45.148;39.604;2023-11-21T05:08:44;17.35;;;11.95;;
52031;SDS011;38044;45.148;39.604;2023-11-21T05:11:10;16.08;;;12.32;;
52031;SDS011;38044;45.148;39.604;2023-11-21T05:13:36;17.10;;;12.35;;
52031;SDS011;38044;45.148;39.604;2023-11-21T05:16:02;18.40;;;13.05;;
52031;SDS011;38044;45.148;39.604;2023-11-21T05:18:32;18.15;;;12.93;;
52031;SDS011;38044;45.148;39.604;2023-11-21T05:20:59;16.73;;;12.32;;
52031;SDS011;38044;45.148;39.604;2023-11-21T05:23:26;16.95;;;13.05;;
52031;SDS011;38044;45.148;39.604;2023-11-21T05:25:51;16.73;;;12.18;;
52031;SDS011;38044;45.148;39.604;2023-11-21T05:28:17;17.67;;;12.50;;
52031;SDS011;38044;45.148;39.604;2023-11-21T05:30:43;18.27;;;12.75;;
52031;SDS011;38044;45.148;39.604;2023-11-21T05:33:09;16.73;;;12.65;;
52031;SDS011;38044;45.148;39.604;2023-11-21T05:35:35;16.75;;;12.73;;
52031;SDS011;38044;45.148;39.604;2023-11-21T05:38:01;17.52;;;13.13;;
52031;SDS011;38044;45.148;39.604;2023-11-21T05:40:27;16.70;;;12.77;;
52031;SDS011;38044;45.148;39.604;2023-11-21T05:42:54;27.60;;;14.10;;
52031;SDS011;38044;45.148;39.604;2023-11-21T05:45:21;20.75;;;14.18;;
52031;SDS011;38044;45.148;39.604;2023-11-21T05:47:47;21.10;;;15.75;;
52031;SDS011;38044;45.148;39.604;2023-11-21T05:50:13;18.52;;;13.57;;
52031;SDS011;38044;45.148;39.604;2023-11-21T05:52:41;17.05;;;12.80;;
52031;SDS011;38044;45.148;39.604;2023-11-21T05:55:10;17.02;;;12.77;;
52031;SDS011;38044;45.148;39.604;2023-11-21T05:57:38;15.90;;;11.93;;
52031;SDS011;38044;45.148;39.604;2023-11-21T06:00:14;17.58;;;14.10;;
52031;SDS011;38044;45.148;39.604;2023-11-21T06:02:51;16.98;;;11.77;;
52031;SDS011;38044;45.148;39.604;2023-11-21T06:05:21;16.50;;;13.00;;
52031;SDS011;38044;45.148;39.604;2023-11-21T06:07:51;18.85;;;13.80;;
52031;SDS011;38044;45.148;39.604;2023-11-21T06:10:19;16.35;;;11.80;;
52031;SDS011;38044;45.148;39.604;2023-11-21T06:12:46;15.15;;;11.48;;
52031;SDS011;38044;45.148;39.604;2023-11-21T06:15:12;15.15;;;12.20;;
52031;SDS011;38044;45.148;39.604;2023-11-21T06:17:41;15.07;;;11.13;;
52031;SDS011;38044;45.148;39.604;2023-11-21T06:20:08;14.75;;;10.73;;
52031;SDS011;38044;45.148;39.604;2023-11-21T06:22:36;15.13;;;12.30;;
52031;SDS011;38044;45.148;39.604;2023-11-21T06:25:03;16.75;;;12.95;;
52031;SDS011;38044;45.148;39.604;2023-11-21T06:27:33;14.77;;;11.80;;
52031;SDS011;38044;45.148;39.604;2023-11-21T06:30:07;15.27;;;11.65;;
52031;SDS011;38044;45.148;39.604;2023-11-21T06:32:38;16.38;;;11.77;;
52031;SDS011;38044;45.148;39.604;2023-11-21T06:35:07;14.45;;;11.27;;
52031;SDS011;38044;45.148;39.604;2023-11-21T06:37:35;15.18;;;11.43;;
52031;SDS011;38044;45.148;39.604;2023-11-21T06:40:01;13.80;;;10.93;;
52031;SDS011;38044;45.148;39.604;2023-11-21T06:42:29;17.17;;;10.68;;
52031;SDS011;38044;45.148;39.604;2023-11-21T06:44:55;11.73;;;10.18;;
52031;SDS011;38044;45.148;39.604;2023-11-21T06:47:24;13.18;;;10.35;;
52031;SDS011;38044;45.148;39.604;2023-11-21T06:49:51;14.93;;;12.13;;
52031;SDS011;38044;45.148;39.604;2023-11-21T06:52:18;14.95;;;12.50;;
52031;SDS011;38044;45.148;39.604;2023-11-21T06:54:44;15.68;;;11.77;;
52031;SDS011;38044;45.148;39.604;2023-11-21T06:57:10;16.50;;;12.73;;
52031;SDS011;38044;45.148;39.604;2023-11-21T06:59:37;15.13;;;12.55;;
52031;SDS011;38044;45.148;39.604;2023-11-21T07:02:03;17.48;;;13.32;;
52031;SDS011;38044;45.148;39.604;2023-11-21T07:04:32;15.23;;;12.55;;
52031;SDS011;38044;45.148;39.604;2023-11-21T07:06:58;17.20;;;11.52;;
52031;SDS011;38044;45.148;39.604;2023-11-21T07:09:24;13.38;;;11.25;;
52031;SDS011;38044;45.148;39.604;2023-11-21T07:11:54;13.23;;;10.07;;
52031;SDS011;38044;45.148;39.604;2023-11-21T07:14:20;13.73;;;10.45;;
52031;SDS011;38044;45.148;39.604;2023-11-21T07:16:47;11.88;;;10.20;;
52031;SDS011;38044;45.148;39.604;2023-11-21T07:19:13;17.83;;;11.55;;
52031;SDS011;38044;45.148;39.604;2023-11-21T07:21:39;13.18;;;10.65;;
52031;SDS011;38044;45.148;39.604;2023-11-21T07:24:06;14.43;;;10.93;;
52031;SDS011;38044;45.148;39.604;2023-11-21T07:26:33;16.75;;;12.00;;
52031;SDS011;38044;45.148;39.604;2023-11-21T07:29:00;14.80;;;11.25;;
52031;SDS011;38044;45.148;39.604;2023-11-21T07:31:26;13.30;;;11.07;;
52031;SDS011;38044;45.148;39.604;2023-11-21T07:33:52;14.10;;;10.57;;
52031;SDS011;38044;45.148;39.604;2023-11-21T07:36:21;12.63;;;8.65;;
52031;SDS011;38044;45.148;39.604;2023-11-21T07:38:47;13.35;;;9.57;;
52031;SDS011;38044;45.148;39.604;2023-11-21T07:41:13;14.80;;;11.25;;
52031;SDS011;38044;45.148;39.604;2023-11-21T07:43:43;14.95;;;10.75;;
52031;SDS011;38044;45.148;39.604;2023-11-21T07:46:10;15.43;;;11.32;;
52031;SDS011;38044;45.148;39.604;2023-11-21T07:48:38;14.65;;;12.05;;
52031;SDS011;38044;45.148;39.604;2023-11-21T07:51:07;18.23;;;12.35;;
52031;SDS011;38044;45.148;39.604;2023-11-21T07:53:34;16.73;;;11.63;;
52031;SDS011;38044;45.148;39.604;2023-11-21T07:56:03;14.50;;;10.45;;
52031;SDS011;38044;45.148;39.604;2023-11-21T07:58:30;15.27;;;11.40;;
52031;SDS011;38044;45.148;39.604;2023-11-21T08:00:58;17.33;;;12.50;;
52031;SDS011;38044;45.148;39.604;2023-11-21T08:03:25;14.85;;;11.20;;
52031;SDS011;38044;45.148;39.604;2023-11-21T08:05:55;19.23;;;12.50;;
52031;SDS011;38044;45.148;39.604;2023-11-21T08:08:25;16.27;;;12.75;;
52031;SDS011;38044;45.148;39.604;2023-11-21T08:10:52;17.30;;;12.60;;
52031;SDS011;38044;45.148;39.604;2023-11-21T08:15:50;16.63;;;12.88;;
52031;SDS011;38044;45.148;39.604;2023-11-21T08:18:19;17.85;;;13.13;;
52031;SDS011;38044;45.148;39.604;2023-11-21T08:20:45;17.10;;;13.38;;
52031;SDS011;38044;45.148;39.604;2023-11-21T08:23:14;15.60;;;12.68;;
52031;SDS011;38044;45.148;39.604;2023-11-21T08:25:42;15.32;;;12.77;;
52031;SDS011;38044;45.148;39.604;2023-11-21T08:28:12;17.05;;;12.02;;
52031;SDS011;38044;45.148;39.604;2023-11-21T08:30:41;17.25;;;12.55;;
52031;SDS011;38044;45.148;39.604;2023-11-21T08:33:07;16.13;;;12.75;;
52031;SDS011;38044;45.148;39.604;2023-11-21T08:35:35;17.55;;;12.93;;
52031;SDS011;38044;45.148;39.604;2023-11-21T08:38:01;21.35;;;13.15;;
52031;SDS011;38044;45.148;39.604;2023-11-21T08:40:28;15.48;;;12.50;;
52031;SDS011;38044;45.148;39.604;2023-11-21T08:42:54;18.10;;;13.00;;
52031;SDS011;38044;45.148;39.604;2023-11-21T08:45:20;13.80;;;11.18;;
52031;SDS011;38044;45.148;39.604;2023-11-21T08:47:47;14.90;;;10.50;;
52031;SDS011;38044;45.148;39.604;2023-11-21T08:50:13;13.73;;;10.57;;
52031;SDS011;38044;45.148;39.604;2023-11-21T08:52:40;11.82;;;9.85;;
52031;SDS011;38044;45.148;39.604;2023-11-21T08:55:07;11.68;;;9.48;;
52031;SDS011;38044;45.148;39.604;2023-11-21T08:57:36;12.18;;;10.48;;
52031;SDS011;38044;45.148;39.604;2023-11-21T09:00:03;11.05;;;8.93;;
52031;SDS011;38044;45.148;39.604;2023-11-21T09:02:32;12.48;;;8.82;;
52031;SDS011;38044;45.148;39.604;2023-11-21T09:05:02;9.98;;;8.15;;
52031;SDS011;38044;45.148;39.604;2023-11-21T09:07:29;11.27;;;8.60;;
52031;SDS011;38044;45.148;39.604;2023-11-21T09:09:55;12.07;;;8.70;;
52031;SDS011;38044;45.148;39.604;2023-11-21T09:12:21;11.77;;;8.75;;
52031;SDS011;38044;45.148;39.604;2023-11-21T09:14:47;10.30;;;7.97;;
52031;SDS011;38044;45.148;39.604;2023-11-21T09:17:15;9.27;;;8.30;;
52031;SDS011;38044;45.148;39.604;2023-11-21T09:19:41;9.65;;;7.90;;
52031;SDS011;38044;45.148;39.604;2023-11-21T09:22:07;9.38;;;7.32;;
52031;SDS011;38044;45.148;39.604;2023-11-21T09:24:33;8.65;;;7.03;;
52031;SDS011;38044;45.148;39.604;2023-11-21T09:26:59;9.23;;;7.30;;
52031;SDS011;38044;45.148;39.604;2023-11-21T09:29:28;8.43;;;7.53;;
52031;SDS011;38044;45.148;39.604;2023-11-21T09:31:57;9.10;;;7.85;;
52031;SDS011;38044;45.148;39.604;2023-11-21T09:34:26;8.23;;;7.18;;
52031;SDS011;38044;45.148;39.604;2023-11-21T09:36:52;8.85;;;7.40;;
52031;SDS011;38044;45.148;39.604;2023-11-21T09:39:19;10.52;;;7.22;;
52031;SDS011;38044;45.148;39.604;2023-11-21T09:41:57;9.25;;;7.65;;
52031;SDS011;38044;45.148;39.604;2023-11-21T09:44:35;9.77;;;7.70;;
52031;SDS011;38044;45.148;39.604;2023-11-21T09:47:10;9.45;;;7.60;;
52031;SDS011;38044;45.148;39.604;2023-11-21T09:49:39;9.38;;;7.85;;
52031;SDS011;38044;45.148;39.604;2023-11-21T09:52:05;9.43;;;7.82;;
52031;SDS011;38044;45.148;39.604;2023-11-21T09:54:34;11.73;;;8.73;;
52031;SDS011;38044;45.148;39.604;2023-11-21T09:57:01;9.85;;;8.43;;
52031;SDS011;38044;45.148;39.604;2023-11-21T09:59:30;10.95;;;9.80;;
52031;SDS011;38044;45.148;39.604;2023-11-21T10:01:59;10.63;;;9.52;;
52031;SDS011;38044;45.148;39.604;2023-11-21T10:04:25;10.20;;;9.15;;
52031;SDS011;38044;45.148;39.604;2023-11-21T10:06:51;14.52;;;10.25;;
52031;SDS011;38044;45.148;39.604;2023-11-21T10:09:19;13.65;;;10.30;;
52031;SDS011;38044;45.148;39.604;2023-11-21T10:11:46;11.07;;;9.15;;
52031;SDS011;38044;45.148;39.604;2023-11-21T10:14:15;12.10;;;9.10;;
52031;SDS011;38044;45.148;39.604;2023-11-21T10:16:44;9.80;;;8.68;;
52031;SDS011;38044;45.148;39.604;2023-11-21T10:19:12;12.05;;;9.57;;
52031;SDS011;38044;45.148;39.604;2023-11-21T10:21:42;11.40;;;9.30;;
52031;SDS011;38044;45.148;39.604;2023-11-21T10:24:08;11.90;;;8.40;;
52031;SDS011;38044;45.148;39.604;2023-11-21T10:26:34;10.65;;;9.05;;
52031;SDS011;38044;45.148;39.604;2023-11-21T10:29:02;8.95;;;7.88;;
52031;SDS011;38044;45.148;39.604;2023-11-21T10:31:31;9.77;;;8.27;;
52031;SDS011;38044;45.148;39.604;2023-11-21T10:34:19;11.00;;;8.38;;
52031;SDS011;38044;45.148;39.604;2023-11-21T10:36:45;10.52;;;8.55;;
52031;SDS011;38044;45.148;39.604;2023-11-21T10:39:14;10.25;;;8.25;;
52031;SDS011;38044;45.148;39.604;2023-11-21T10:41:46;12.35;;;9.55;;
52031;SDS011;38044;45.148;39.604;2023-11-21T10:44:16;10.15;;;8.43;;
52031;SDS011;38044;45.148;39.604;2023-11-21T10:46:49;12.85;;;9.98;;
52031;SDS011;38044;45.148;39.604;2023-11-21T10:49:22;11.18;;;9.15;;
52031;SDS011;38044;45.148;39.604;2023-11-21T10:51:55;10.15;;;8.98;;
52031;SDS011;38044;45.148;39.604;2023-11-21T10:54:24;12.38;;;9.23;;
52031;SDS011;38044;45.148;39.604;2023-11-21T10:56:57;11.27;;;9.15;;
52031;SDS011;38044;45.148;39.604;2023-11-21T10:59:33;11.40;;;8.55;;
52031;SDS011;38044;45.148;39.604;2023-11-21T11:02:00;11.23;;;8.00;;
52031;SDS011;38044;45.148;39.604;2023-11-21T11:04:33;11.45;;;8.98;;
52031;SDS011;38044;45.148;39.604;2023-11-21T11:07:03;9.85;;;8.27;;
52031;SDS011;38044;45.148;39.604;2023-11-21T11:09:34;10.00;;;8.70;;
52031;SDS011;38044;45.148;39.604;2023-11-21T11:12:03;11.98;;;8.65;;
52031;SDS011;38044;45.148;39.604;2023-11-21T11:14:29;11.07;;;9.05;;
52031;SDS011;38044;45.148;39.604;2023-11-21T11:16:57;10.80;;;8.38;;
52031;SDS011;38044;45.148;39.604;2023-11-21T11:19:25;10.48;;;9.10;;
52031;SDS011;38044;45.148;39.604;2023-11-21T11:25:03;11.85;;;9.15;;
52031;SDS011;38044;45.148;39.604;2023-11-21T11:27:51;13.10;;;10.80;;
52031;SDS011;38044;45.148;39.604;2023-11-21T11:30:46;11.80;;;9.75;;
52031;SDS011;38044;45.148;39.604;2023-11-21T11:36:31;9.82;;;8.50;;
52031;SDS011;38044;45.148;39.604;2023-11-21T11:39:01;20.13;;;15.05;;
52031;SDS011;38044;45.148;39.604;2023-11-21T11:41:30;18.05;;;13.13;;
52031;SDS011;38044;45.148;39.604;2023-11-21T11:43:59;16.25;;;13.73;;
52031;SDS011;38044;45.148;39.604;2023-11-21T11:49:54;13.02;;;10.18;;
52031;SDS011;38044;45.148;39.604;2023-11-21T11:55:06;13.68;;;10.32;;
52031;SDS011;38044;45.148;39.604;2023-11-21T11:57:35;10.18;;;8.70;;
52031;SDS011;38044;45.148;39.604;2023-11-21T12:00:14;11.23;;;8.98;;
52031;SDS011;38044;45.148;39.604;2023-11-21T12:03:07;10.82;;;7.90;;
52031;SDS011;38044;45.148;39.604;2023-11-21T12:05:34;10.13;;;8.63;;
52031;SDS011;38044;45.148;39.604;2023-11-21T12:08:04;15.95;;;12.68;;
52031;SDS011;38044;45.148;39.604;2023-11-21T12:10:36;10.23;;;8.40;;
52031;SDS011;38044;45.148;39.604;2023-11-21T12:15:35;11.82;;;8.82;;
52031;SDS011;38044;45.148;39.604;2023-11-21T12:18:02;11.75;;;8.95;;
52031;SDS011;38044;45.148;39.604;2023-11-21T12:20:31;11.15;;;8.40;;
52031;SDS011;38044;45.148;39.604;2023-11-21T12:22:58;14.40;;;9.57;;
52031;SDS011;38044;45.148;39.604;2023-11-21T12:25:26;9.95;;;7.78;;
52031;SDS011;38044;45.148;39.604;2023-11-21T12:27:59;9.70;;;8.05;;
52031;SDS011;38044;45.148;39.604;2023-11-21T12:30:31;10.55;;;8.40;;
52031;SDS011;38044;45.148;39.604;2023-11-21T12:33:01;9.00;;;7.95;;
52031;SDS011;38044;45.148;39.604;2023-11-21T12:35:29;8.90;;;7.63;;
52031;SDS011;38044;45.148;39.604;2023-11-21T12:38:00;9.63;;;7.95;;
52031;SDS011;38044;45.148;39.604;2023-11-21T12:40:28;10.27;;;7.85;;
52031;SDS011;38044;45.148;39.604;2023-11-21T12:42:55;10.57;;;8.07;;
52031;SDS011;38044;45.148;39.604;2023-11-21T12:45:23;10.52;;;8.15;;
52031;SDS011;38044;45.148;39.604;2023-11-21T12:48:00;9.88;;;8.45;;
52031;SDS011;38044;45.148;39.604;2023-11-21T12:50:34;10.27;;;8.57;;
52031;SDS011;38044;45.148;39.604;2023-11-21T12:53:11;14.13;;;11.13;;
52031;SDS011;38044;45.148;39.604;2023-11-21T12:55:38;13.88;;;10.35;;
52031;SDS011;38044;45.148;39.604;2023-11-21T12:58:05;11.50;;;9.55;;
52031;SDS011;38044;45.148;39.604;2023-11-21T13:00:37;13.90;;;10.30;;
52031;SDS011;38044;45.148;39.604;2023-11-21T13:03:10;27.23;;;19.02;;
52031;SDS011;38044;45.148;39.604;2023-11-21T13:05:41;13.18;;;11.13;;
52031;SDS011;38044;45.148;39.604;2023-11-21T13:08:16;10.70;;;8.65;;
52031;SDS011;38044;45.148;39.604;2023-11-21T13:10:46;10.48;;;8.13;;
52031;SDS011;38044;45.148;39.604;2023-11-21T13:13:16;9.20;;;7.97;;
52031;SDS011;38044;45.148;39.604;2023-11-21T13:15:53;10.15;;;8.10;;
52031;SDS011;38044;45.148;39.604;2023-11-21T13:18:26;12.00;;;8.73;;
52031;SDS011;38044;45.148;39.604;2023-11-21T13:20:53;8.75;;;7.28;;
52031;SDS011;38044;45.148;39.604;2023-11-21T13:23:20;9.52;;;7.30;;
52031;SDS011;38044;45.148;39.604;2023-11-21T13:25:48;10.85;;;7.97;;
52031;SDS011;38044;45.148;39.604;2023-11-21T13:28:14;11.38;;;8.90;;
52031;SDS011;38044;45.148;39.604;2023-11-21T13:30:46;10.73;;;8.15;;
52031;SDS011;38044;45.148;39.604;2023-11-21T13:33:17;10.55;;;8.85;;
52031;SDS011;38044;45.148;39.604;2023-11-21T13:35:46;14.38;;;9.35;;
52031;SDS011;38044;45.148;39.604;2023-11-21T13:38:15;11.55;;;8.98;;
52031;SDS011;38044;45.148;39.604;2023-11-21T13:40:46;10.48;;;8.52;;
52031;SDS011;38044;45.148;39.604;2023-11-21T13:43:15;12.43;;;9.82;;
52031;SDS011;38044;45.148;39.604;2023-11-21T13:45:47;9.93;;;8.57;;
52031;SDS011;38044;45.148;39.604;2023-11-21T13:48:23;10.52;;;9.10;;
52031;SDS011;38044;45.148;39.604;2023-11-21T13:51:06;10.90;;;8.30;;
52031;SDS011;38044;45.148;39.604;2023-11-21T13:53:45;10.85;;;9.00;;
52031;SDS011;38044;45.148;39.604;2023-11-21T13:56:17;13.85;;;9.73;;
52031;SDS011;38044;45.148;39.604;2023-11-21T13:58:52;13.27;;;9.02;;
52031;SDS011;38044;45.148;39.604;2023-11-21T14:01:26;12.57;;;10.00;;
52031;SDS011;38044;45.148;39.604;2023-11-21T14:03:55;11.50;;;9.88;;
52031;SDS011;38044;45.148;39.604;2023-11-21T14:06:36;11.30;;;9.20;;
52031;SDS011;38044;45.148;39.604;2023-11-21T14:09:13;12.77;;;9.32;;
52031;SDS011;38044;45.148;39.604;2023-11-21T14:11:54;11.70;;;8.45;;
52031;SDS011;38044;45.148;39.604;2023-11-21T14:14:26;12.88;;;9.07;;
52031;SDS011;38044;45.148;39.604;2023-11-21T14:16:55;11.15;;;8.90;;
52031;SDS011;38044;45.148;39.604;2023-11-21T14:19:21;12.82;;;9.60;;
52031;SDS011;38044;45.148;39.604;2023-11-21T14:21:52;12.95;;;9.77;;
52031;SDS011;38044;45.148;39.604;2023-11-21T14:24:18;13.13;;;9.82;;
52031;SDS011;38044;45.148;39.604;2023-11-21T14:26:44;11.07;;;9.18;;
52031;SDS011;38044;45.148;39.604;2023-11-21T14:29:12;14.05;;;10.40;;
52031;SDS011;38044;45.148;39.604;2023-11-21T14:31:41;13.23;;;10.05;;
52031;SDS011;38044;45.148;39.604;2023-11-21T14:34:07;11.82;;;9.48;;
52031;SDS011;38044;45.148;39.604;2023-11-21T14:36:34;12.80;;;9.40;;
52031;SDS011;38044;45.148;39.604;2023-11-21T14:39:01;11.90;;;8.80;;
52031;SDS011;38044;45.148;39.604;2023-11-21T14:41:32;12.23;;;9.57;;
52031;SDS011;38044;45.148;39.604;2023-11-21T14:44:00;12.38;;;9.43;;